createdAt,value
2019-02-01T00:00:40.057Z,1.41
2019-02-01T00:01:20.614Z,1.49
2019-02-01T00:02:01.168Z,1.44
2019-02-01T00:02:41.723Z,1.45
2019-02-01T00:03:22.278Z,1.45
2019-02-01T00:04:02.822Z,1.41
2019-02-01T00:04:43.373Z,1.45
2019-02-01T00:05:23.926Z,1.4
2019-02-01T00:06:04.489Z,1.4
2019-02-01T00:06:45.035Z,1.41
2019-02-01T00:07:25.599Z,1.35
2019-02-01T00:08:06.147Z,1.31
2019-02-01T00:08:46.704Z,1.31
2019-02-01T00:09:27.273Z,1.31
2019-02-01T00:10:07.837Z,1.34
2019-02-01T00:10:48.410Z,1.35
2019-02-01T00:11:28.962Z,1.31
2019-02-01T00:12:09.518Z,1.3
2019-02-01T00:12:50.074Z,1.35
2019-02-01T00:13:30.635Z,1.28
2019-02-01T00:14:11.189Z,1.28
2019-02-01T00:14:51.728Z,1.31
2019-02-01T00:15:32.282Z,1.37
2019-02-01T00:16:12.840Z,1.35
2019-02-01T00:16:53.398Z,1.31
2019-02-01T00:17:33.945Z,1.37
2019-02-01T00:18:14.500Z,1.44
2019-02-01T00:18:55.055Z,1.37
2019-02-01T00:19:35.612Z,1.42
2019-02-01T00:20:16.162Z,1.37
2019-02-01T00:20:56.712Z,1.37
2019-02-01T00:21:37.276Z,1.48
2019-02-01T00:22:17.831Z,1.49
2019-02-01T00:22:58.395Z,1.49
2019-02-01T00:23:38.949Z,1.38
2019-02-01T00:24:19.513Z,1.38
2019-02-01T00:25:00.075Z,1.41
2019-02-01T00:25:40.630Z,1.42
2019-02-01T00:26:21.192Z,1.35
2019-02-01T00:27:01.750Z,1.38
2019-02-01T00:27:42.297Z,1.41
2019-02-01T00:28:22.863Z,1.48
2019-02-01T00:29:03.417Z,1.42
2019-02-01T00:29:43.969Z,1.45
2019-02-01T00:30:24.539Z,1.45
2019-02-01T00:31:05.080Z,1.45
2019-02-01T00:31:45.630Z,1.49
2019-02-01T00:32:26.198Z,1.49
2019-02-01T00:33:06.777Z,1.52
2019-02-01T00:33:47.331Z,1.48
2019-02-01T00:34:27.904Z,1.49
2019-02-01T00:35:08.487Z,1.52
2019-02-01T00:35:49.051Z,1.48
2019-02-01T00:36:29.607Z,1.48
2019-02-01T00:37:10.182Z,1.49
2019-02-01T00:37:50.732Z,1.49
2019-02-01T00:38:31.311Z,1.45
2019-02-01T00:39:11.873Z,1.49
2019-02-01T00:39:52.423Z,1.45
2019-02-01T00:40:32.963Z,1.42
2019-02-01T00:41:13.547Z,1.44
2019-02-01T00:41:54.096Z,1.55
2019-02-01T00:42:34.682Z,1.5
2019-02-01T00:43:15.237Z,1.49
2019-02-01T00:43:55.814Z,1.53
2019-02-01T00:44:36.387Z,1.53
2019-02-01T00:45:17.063Z,1.5
2019-02-01T00:45:57.489Z,1.45
2019-02-01T00:46:38.052Z,1.52
2019-02-01T00:47:18.619Z,1.53
2019-02-01T00:47:59.192Z,1.48
2019-02-01T00:48:39.758Z,1.45
2019-02-01T00:49:20.310Z,1.52
2019-02-01T00:50:00.877Z,1.45
2019-02-01T00:50:41.430Z,1.49
2019-02-01T00:51:22.007Z,1.5
2019-02-01T00:52:02.564Z,1.53
2019-02-01T00:52:43.114Z,1.49
2019-02-01T00:53:23.670Z,1.42
2019-02-01T00:54:04.232Z,1.49
2019-02-01T00:54:44.783Z,1.48
2019-02-01T00:55:25.371Z,1.45
2019-02-01T00:56:05.938Z,1.48
2019-02-01T00:56:46.489Z,1.44
2019-02-01T00:57:27.044Z,1.53
2019-02-01T00:58:07.594Z,1.49
2019-02-01T00:58:48.156Z,1.49
2019-02-01T00:59:28.711Z,1.49
2019-02-01T01:00:09.365Z,1.5
2019-02-01T01:00:49.926Z,1.45
2019-02-01T01:01:30.470Z,1.45
2019-02-01T01:02:11.016Z,1.34
2019-02-01T01:02:51.576Z,1.28
2019-02-01T01:03:32.129Z,1.32
2019-02-01T01:04:12.679Z,1.31
2019-02-01T01:04:53.243Z,1.3
2019-02-01T01:05:33.818Z,1.26
2019-02-01T01:06:14.391Z,1.3
2019-02-01T01:06:54.963Z,1.28
2019-02-01T01:07:35.522Z,1.34
2019-02-01T01:08:16.118Z,1.3
2019-02-01T01:08:56.689Z,1.2
2019-02-01T01:09:37.257Z,1.16
2019-02-01T01:10:17.811Z,1.24
2019-02-01T01:10:58.366Z,1.16
2019-02-01T01:11:38.923Z,1.19
2019-02-01T01:12:19.471Z,1.16
2019-02-01T01:13:00.070Z,1.12
2019-02-01T01:13:40.632Z,1.16
2019-02-01T01:14:21.197Z,1.14
2019-02-01T01:15:01.758Z,1.16
2019-02-01T01:15:42.307Z,1.14
2019-02-01T01:16:22.863Z,1.17
2019-02-01T01:17:03.429Z,1.19
2019-02-01T01:17:43.979Z,1.12
2019-02-01T01:18:24.547Z,1.14
2019-02-01T01:19:05.105Z,1.04
2019-02-01T01:19:45.643Z,1.12
2019-02-01T01:20:26.195Z,1.13
2019-02-01T01:21:06.746Z,1.02
2019-02-01T01:21:47.301Z,1.08
2019-02-01T01:22:27.860Z,1.13
2019-02-01T01:23:08.420Z,0.99
2019-02-01T01:23:48.984Z,1.13
2019-02-01T01:24:29.552Z,1.01
2019-02-01T01:25:10.109Z,0.95
2019-02-01T01:25:50.681Z,1.01
2019-02-01T01:26:31.225Z,1.04
2019-02-01T01:27:11.790Z,1.06
2019-02-01T01:27:52.363Z,1.05
2019-02-01T01:28:32.998Z,1.13
2019-02-01T01:29:13.479Z,1.04
2019-02-01T01:29:54.032Z,1.08
2019-02-01T01:30:34.597Z,1.08
2019-02-01T01:31:15.151Z,1.05
2019-02-01T01:31:55.712Z,1.12
2019-02-01T01:32:36.270Z,1.06
2019-02-01T01:33:16.833Z,1.06
2019-02-01T01:33:57.381Z,1.05
2019-02-01T01:34:37.953Z,1.1
2019-02-01T01:35:18.513Z,1.04
2019-02-01T01:35:59.068Z,0.99
2019-02-01T01:36:39.616Z,1.08
2019-02-01T01:37:20.197Z,1.17
2019-02-01T01:38:00.759Z,1.06
2019-02-01T01:38:41.291Z,1.17
2019-02-01T01:39:21.843Z,1.04
2019-02-01T01:40:02.404Z,1.08
2019-02-01T01:40:42.955Z,1.17
2019-02-01T01:41:23.520Z,1.14
2019-02-01T01:42:04.069Z,1.04
2019-02-01T01:42:44.626Z,1.13
2019-02-01T01:43:25.198Z,1.1
2019-02-01T01:44:05.758Z,1.01
2019-02-01T01:44:46.321Z,1.06
2019-02-01T01:45:26.880Z,1.17
2019-02-01T01:46:07.432Z,1.12
2019-02-01T01:46:47.991Z,1.19
2019-02-01T01:47:28.552Z,1.12
2019-02-01T01:48:09.108Z,1.1
2019-02-01T01:48:49.659Z,1.16
2019-02-01T01:49:30.252Z,1.17
2019-02-01T01:50:11.141Z,1.14
2019-02-01T01:50:51.692Z,1.1
2019-02-01T01:51:32.242Z,1.13
2019-02-01T01:52:12.814Z,1.19
2019-02-01T01:52:53.381Z,1.13
2019-02-01T01:53:33.927Z,1.12
2019-02-01T01:54:14.476Z,1.1
2019-02-01T01:54:55.033Z,1.1
2019-02-01T01:55:35.578Z,1.16
2019-02-01T01:56:16.166Z,1.14
2019-02-01T01:56:56.717Z,1.17
2019-02-01T01:57:37.304Z,1.14
2019-02-01T01:58:17.859Z,1.1
2019-02-01T01:58:58.424Z,1.08
2019-02-01T01:59:38.988Z,1.08
2019-02-01T02:00:19.538Z,1.13
2019-02-01T02:01:00.214Z,1.1
2019-02-01T02:01:40.728Z,1.04
2019-02-01T02:02:21.288Z,1.14
2019-02-01T02:03:01.833Z,1.14
2019-02-01T02:03:42.391Z,1.14
2019-02-01T02:04:22.939Z,1.22
2019-02-01T02:05:03.493Z,1.19
2019-02-01T02:05:44.137Z,1.14
2019-02-01T02:06:24.748Z,1.13
2019-02-01T02:07:05.302Z,1.14
2019-02-01T02:07:45.868Z,1.17
2019-02-01T02:08:26.442Z,1.14
2019-02-01T02:09:06.978Z,1.12
2019-02-01T02:09:47.541Z,1.04
2019-02-01T02:10:28.130Z,1.13
2019-02-01T02:11:08.701Z,1.05
2019-02-01T02:11:49.255Z,1.04
2019-02-01T02:12:29.802Z,1.04
2019-02-01T02:13:10.361Z,1.05
2019-02-01T02:13:50.928Z,0.99
2019-02-01T02:14:31.500Z,0.99
2019-02-01T02:15:12.106Z,0.98
2019-02-01T02:15:52.668Z,0.94
2019-02-01T02:16:33.223Z,0.98
2019-02-01T02:17:13.793Z,0.96
2019-02-01T02:17:54.346Z,1.04
2019-02-01T02:18:45.920Z,1.04
2019-02-01T02:19:15.494Z,0.98
2019-02-01T02:19:56.058Z,0.94
2019-02-01T02:20:36.621Z,0.96
2019-02-01T02:21:17.189Z,0.96
2019-02-01T02:21:57.753Z,1.02
2019-02-01T02:22:38.303Z,0.99
2019-02-01T02:23:18.861Z,1.14
2019-02-01T02:23:59.541Z,1.06
2019-02-01T02:24:39.972Z,1.06
2019-02-01T02:25:20.544Z,1.04
2019-02-01T02:26:01.096Z,1.19
2019-02-01T02:26:41.661Z,1.05
2019-02-01T02:27:22.223Z,1.04
2019-02-01T02:28:02.789Z,1.13
2019-02-01T02:28:43.352Z,1.05
2019-02-01T02:29:23.903Z,1.05
2019-02-01T02:30:04.470Z,0.99
2019-02-01T02:30:45.060Z,1.08
2019-02-01T02:31:25.604Z,1.12
2019-02-01T02:32:06.184Z,1.08
2019-02-01T02:32:46.726Z,1.1
2019-02-01T02:33:27.291Z,1.04
2019-02-01T02:34:11.425Z,1.08
2019-02-01T02:34:48.415Z,0.98
2019-02-01T02:35:28.975Z,0.95
2019-02-01T02:36:09.530Z,1.04
2019-02-01T02:36:50.103Z,1.01
2019-02-01T02:37:30.661Z,1.04
2019-02-01T02:38:11.212Z,1.05
2019-02-01T02:38:51.762Z,1.04
2019-02-01T02:39:32.340Z,1.02
2019-02-01T02:40:12.910Z,0.98
2019-02-01T02:40:53.462Z,0.99
2019-02-01T02:41:34.025Z,1.01
2019-02-01T02:42:14.586Z,0.99
2019-02-01T02:42:55.127Z,0.95
2019-02-01T02:43:35.698Z,0.94
2019-02-01T02:44:16.251Z,0.88
2019-02-01T02:44:56.817Z,0.92
2019-02-01T02:45:37.504Z,0.77
2019-02-01T02:46:19.197Z,0.86
2019-02-01T02:46:58.491Z,0.8
2019-02-01T02:47:39.079Z,0.78
2019-02-01T02:48:19.644Z,0.78
2019-02-01T02:49:00.721Z,0.8
2019-02-01T02:49:40.749Z,0.76
2019-02-01T02:50:21.748Z,0.8
2019-02-01T02:51:02.195Z,0.78
2019-02-01T02:51:42.764Z,0.76
2019-02-01T02:52:23.336Z,0.78
2019-02-01T02:53:03.912Z,0.69
2019-02-01T02:53:44.469Z,0.76
2019-02-01T02:54:25.028Z,0.76
2019-02-01T02:55:05.609Z,0.69
2019-02-01T02:55:46.162Z,0.7
2019-02-01T02:56:26.716Z,0.7
2019-02-01T02:57:09.497Z,0.7
2019-02-01T02:57:47.885Z,0.69
2019-02-01T02:58:28.445Z,0.63
2019-02-01T02:59:09.066Z,0.63
2019-02-01T02:59:49.619Z,0.73
2019-02-01T03:00:30.195Z,0.76
2019-02-01T03:01:10.751Z,0.77
2019-02-01T03:01:51.297Z,0.74
2019-02-01T03:02:31.853Z,0.74
2019-02-01T03:03:12.404Z,0.7
2019-02-01T03:03:52.950Z,0.74
2019-02-01T03:04:33.512Z,0.66
2019-02-01T03:05:14.088Z,0.63
2019-02-01T03:05:54.644Z,0.76
2019-02-01T03:06:35.193Z,0.73
2019-02-01T03:07:15.742Z,0.78
2019-02-01T03:07:56.461Z,0.78
2019-02-01T03:08:36.859Z,0.77
2019-02-01T03:09:17.422Z,0.8
2019-02-01T03:09:58.000Z,0.81
2019-02-01T03:10:38.564Z,0.83
2019-02-01T03:11:19.117Z,0.81
2019-02-01T03:11:59.672Z,0.84
2019-02-01T03:12:40.230Z,0.76
2019-02-01T03:13:20.794Z,0.86
2019-02-01T03:14:01.366Z,0.84
2019-02-01T03:14:41.935Z,0.88
2019-02-01T03:15:22.485Z,0.86
2019-02-01T03:16:03.038Z,0.94
2019-02-01T03:16:43.596Z,0.94
2019-02-01T03:17:24.167Z,0.84
2019-02-01T03:18:04.741Z,0.83
2019-02-01T03:18:45.289Z,0.94
2019-02-01T03:19:25.838Z,0.94
2019-02-01T03:20:06.412Z,0.91
2019-02-01T03:20:46.974Z,0.88
2019-02-01T03:21:27.544Z,0.81
2019-02-01T03:22:08.122Z,0.92
2019-02-01T03:22:48.700Z,0.81
2019-02-01T03:23:29.267Z,0.81
2019-02-01T03:24:09.816Z,0.83
2019-02-01T03:24:50.376Z,0.8
2019-02-01T03:25:30.918Z,0.73
2019-02-01T03:26:11.473Z,0.73
2019-02-01T03:26:52.044Z,0.76
2019-02-01T03:27:32.603Z,0.73
2019-02-01T03:28:13.165Z,0.73
2019-02-01T03:28:53.708Z,0.74
2019-02-01T03:29:34.270Z,0.76
2019-02-01T03:30:14.855Z,0.73
2019-02-01T03:30:55.460Z,0.69
2019-02-01T03:31:35.942Z,0.78
2019-02-01T03:32:16.514Z,0.77
2019-02-01T03:32:57.059Z,0.77
2019-02-01T03:33:37.616Z,0.76
2019-02-01T03:34:18.161Z,0.76
2019-02-01T03:34:58.721Z,0.74
2019-02-01T03:35:39.296Z,0.73
2019-02-01T03:36:19.860Z,0.69
2019-02-01T03:37:00.427Z,0.62
2019-02-01T03:37:40.992Z,0.7
2019-02-01T03:38:21.557Z,0.68
2019-02-01T03:39:02.108Z,0.6
2019-02-01T03:39:42.658Z,0.59
2019-02-01T03:40:23.224Z,0.63
2019-02-01T03:41:03.778Z,0.63
2019-02-01T03:41:44.327Z,0.55
2019-02-01T03:42:24.873Z,0.59
2019-02-01T03:43:05.436Z,0.58
2019-02-01T03:43:45.993Z,0.58
2019-02-01T03:44:26.556Z,0.55
2019-02-01T03:45:07.084Z,0.56
2019-02-01T03:45:47.860Z,0.55
2019-02-01T03:46:28.428Z,0.52
2019-02-01T03:47:08.982Z,0.62
2019-02-01T03:47:49.646Z,0.62
2019-02-01T03:48:30.087Z,0.66
2019-02-01T03:49:10.645Z,0.59
2019-02-01T03:49:51.217Z,0.68
2019-02-01T03:50:31.800Z,0.66
2019-02-01T03:51:12.353Z,0.65
2019-02-01T03:51:52.910Z,0.7
2019-02-01T03:52:33.471Z,0.68
2019-02-01T03:53:14.046Z,0.6
2019-02-01T03:53:54.630Z,0.7
2019-02-01T03:54:35.171Z,0.7
2019-02-01T03:55:15.728Z,0.69
2019-02-01T03:55:56.291Z,0.74
2019-02-01T03:56:36.853Z,0.7
2019-02-01T03:57:17.407Z,0.59
2019-02-01T03:57:58.042Z,0.62
2019-02-01T03:58:38.575Z,0.52
2019-02-01T03:59:19.160Z,0.56
2019-02-01T03:59:59.713Z,0.58
2019-02-01T04:00:40.300Z,0.5
2019-02-01T04:01:20.818Z,0.44
2019-02-01T04:02:01.374Z,0.58
2019-02-01T04:02:41.927Z,0.52
2019-02-01T04:03:22.479Z,0.43
2019-02-01T04:04:03.030Z,0.44
2019-02-01T04:04:43.588Z,0.36
2019-02-01T04:05:24.142Z,0.43
2019-02-01T04:06:04.707Z,0.36
2019-02-01T04:06:45.409Z,0.47
2019-02-01T04:07:25.822Z,0.32
2019-02-01T04:08:06.379Z,0.4
2019-02-01T04:08:46.942Z,0.29
2019-02-01T04:09:27.502Z,0.37
2019-02-01T04:10:08.048Z,0.39
2019-02-01T04:10:48.613Z,0.28
2019-02-01T04:11:29.186Z,0.4
2019-02-01T04:12:09.736Z,0.46
2019-02-01T04:12:50.286Z,0.34
2019-02-01T04:13:30.859Z,0.31
2019-02-01T04:14:11.448Z,0.43
2019-02-01T04:14:52.012Z,0.43
2019-02-01T04:15:32.566Z,0.39
2019-02-01T04:16:13.123Z,0.4
2019-02-01T04:16:53.675Z,0.36
2019-02-01T04:17:34.224Z,0.4
2019-02-01T04:18:14.813Z,0.46
2019-02-01T04:18:55.373Z,0.47
2019-02-01T04:19:42.901Z,0.56
2019-02-01T04:20:16.501Z,0.39
2019-02-01T04:20:57.078Z,0.4
2019-02-01T04:21:37.623Z,0.47
2019-02-01T04:22:18.181Z,0.4
2019-02-01T04:22:58.775Z,0.44
2019-02-01T04:23:39.298Z,0.44
2019-02-01T04:24:19.857Z,0.4
2019-02-01T04:25:00.422Z,0.44
2019-02-01T04:25:40.955Z,0.4
2019-02-01T04:26:21.512Z,0.43
2019-02-01T04:27:02.052Z,0.41
2019-02-01T04:27:42.622Z,0.39
2019-02-01T04:28:23.193Z,0.39
2019-02-01T04:29:03.760Z,0.44
2019-02-01T04:29:45.387Z,0.4
2019-02-01T04:30:24.904Z,0.46
2019-02-01T04:31:05.454Z,0.4
2019-02-01T04:31:46.039Z,0.39
2019-02-01T04:32:26.601Z,0.41
2019-02-01T04:33:07.181Z,0.44
2019-02-01T04:33:47.744Z,0.47
2019-02-01T04:34:28.299Z,0.41
2019-02-01T04:35:08.850Z,0.31
2019-02-01T04:35:49.400Z,0.29
2019-02-01T04:36:29.955Z,0.37
2019-02-01T04:37:10.513Z,0.36
2019-02-01T04:37:51.080Z,0.36
2019-02-01T04:38:31.655Z,0.31
2019-02-01T04:39:12.232Z,0.32
2019-02-01T04:39:52.811Z,0.31
2019-02-01T04:40:33.364Z,0.28
2019-02-01T04:41:13.916Z,0.26
2019-02-01T04:41:54.475Z,0.28
2019-02-01T04:42:35.029Z,0.23
2019-02-01T04:43:15.591Z,0.19
2019-02-01T04:43:56.136Z,0.19
2019-02-01T04:44:36.684Z,0.23
2019-02-01T04:45:17.240Z,0.19
2019-02-01T04:45:57.810Z,0.22
2019-02-01T04:46:38.375Z,0.15
2019-02-01T04:47:18.948Z,0.21
2019-02-01T04:47:59.520Z,0.21
2019-02-01T04:48:40.074Z,0.19
2019-02-01T04:49:20.737Z,0.22
2019-02-01T04:50:03.468Z,0.16
2019-02-01T04:50:42.191Z,0.16
2019-02-01T04:51:22.741Z,0.18
2019-02-01T04:52:03.302Z,0.1
2019-02-01T04:52:43.862Z,0.15
2019-02-01T04:53:24.416Z,0.21
2019-02-01T04:54:04.975Z,0.19
2019-02-01T04:54:45.526Z,0.19
2019-02-01T04:55:26.093Z,0.18
2019-02-01T04:56:06.684Z,0.21
2019-02-01T04:56:47.204Z,0.23
2019-02-01T04:57:27.759Z,0.19
2019-02-01T04:58:08.321Z,0.26
2019-02-01T04:58:48.893Z,0.19
2019-02-01T04:59:29.452Z,0.25
2019-02-01T05:00:10.029Z,0.21
2019-02-01T05:00:50.571Z,0.21
2019-02-01T05:01:31.137Z,0.31
2019-02-01T05:02:11.697Z,0.28
2019-02-01T05:02:52.256Z,0.21
2019-02-01T05:03:32.916Z,0.23
2019-02-01T05:04:13.440Z,0.23
2019-02-01T05:04:54.003Z,0.29
2019-02-01T05:05:34.598Z,0.23
2019-02-01T05:06:15.168Z,0.25
2019-02-01T05:06:55.853Z,0.21
2019-02-01T05:07:36.306Z,0.26
2019-02-01T05:08:16.866Z,0.15
2019-02-01T05:08:57.416Z,0.16
2019-02-01T05:09:37.988Z,0.19
2019-02-01T05:10:18.546Z,0.1
2019-02-01T05:10:59.116Z,0.11
2019-02-01T05:11:39.708Z,0.04
2019-02-01T05:12:20.279Z,0.05
2019-02-01T05:13:00.859Z,0.05
2019-02-01T05:13:41.415Z,-0.07
2019-02-01T05:14:21.998Z,-0.02
2019-02-01T05:15:02.579Z,0
2019-02-01T05:15:43.125Z,-0.02
2019-02-01T05:16:23.697Z,-0.03
2019-02-01T05:17:04.259Z,-0.08
2019-02-01T05:17:44.844Z,-0.03
2019-02-01T05:18:25.396Z,-0.17
2019-02-01T05:19:05.954Z,-0.15
2019-02-01T05:19:46.513Z,-0.06
2019-02-01T05:20:27.079Z,-0.14
2019-02-01T05:21:07.615Z,-0.07
2019-02-01T05:21:48.167Z,-0.15
2019-02-01T05:22:28.739Z,-0.14
2019-02-01T05:23:09.293Z,-0.08
2019-02-01T05:23:49.840Z,-0.1
2019-02-01T05:24:30.400Z,-0.08
2019-02-01T05:25:10.952Z,0
2019-02-01T05:25:51.509Z,-0.06
2019-02-01T05:26:32.056Z,-0.02
2019-02-01T05:27:12.617Z,0.07
2019-02-01T05:27:53.171Z,-0.06
2019-02-01T05:28:33.714Z,-0.03
2019-02-01T05:29:14.262Z,0.04
2019-02-01T05:29:54.817Z,0.08
2019-02-01T05:30:35.375Z,-0.06
2019-02-01T05:31:15.952Z,-0.07
2019-02-01T05:31:56.524Z,-0.02
2019-02-01T05:32:37.081Z,-0.02
2019-02-01T05:33:17.642Z,-0.08
2019-02-01T05:33:58.218Z,-0.11
2019-02-01T05:34:38.772Z,-0.1
2019-02-01T05:35:19.333Z,-0.15
2019-02-01T05:35:59.907Z,-0.17
2019-02-01T05:36:40.472Z,-0.2
2019-02-01T05:37:21.022Z,-0.17
2019-02-01T05:38:01.667Z,-0.14
2019-02-01T05:38:42.129Z,-0.14
2019-02-01T05:39:22.691Z,-0.15
2019-02-01T05:40:03.270Z,-0.14
2019-02-01T05:40:43.832Z,-0.08
2019-02-01T05:41:24.391Z,-0.03
2019-02-01T05:42:04.948Z,-0.1
2019-02-01T05:42:45.514Z,-0.14
2019-02-01T05:43:26.109Z,-0.2
2019-02-01T05:44:06.674Z,-0.15
2019-02-01T05:44:47.268Z,-0.08
2019-02-01T05:45:27.820Z,-0.13
2019-02-01T05:46:08.389Z,-0.14
2019-02-01T05:46:48.954Z,-0.25
2019-02-01T05:47:29.507Z,-0.08
2019-02-01T05:48:10.062Z,-0.2
2019-02-01T05:48:50.621Z,-0.13
2019-02-01T05:49:31.179Z,-0.2
2019-02-01T05:50:11.725Z,-0.13
2019-02-01T05:50:52.281Z,-0.14
2019-02-01T05:51:32.991Z,-0.15
2019-02-01T05:52:13.715Z,-0.14
2019-02-01T05:52:54.276Z,-0.13
2019-02-01T05:53:34.828Z,-0.17
2019-02-01T05:54:15.591Z,-0.15
2019-02-01T05:54:56.047Z,-0.18
2019-02-01T05:55:36.621Z,-0.15
2019-02-01T05:56:17.179Z,-0.15
2019-02-01T05:56:57.736Z,-0.23
2019-02-01T05:57:38.269Z,-0.2
2019-02-01T05:58:18.844Z,-0.23
2019-02-01T05:58:59.398Z,-0.26
2019-02-01T05:59:39.982Z,-0.23
2019-02-01T06:00:20.543Z,-0.15
2019-02-01T06:01:01.112Z,-0.17
2019-02-01T06:01:41.662Z,-0.14
2019-02-01T06:02:22.253Z,-0.21
2019-02-01T06:03:02.840Z,-0.18
2019-02-01T06:03:43.393Z,-0.11
2019-02-01T06:04:23.945Z,-0.2
2019-02-01T06:05:04.515Z,-0.15
2019-02-01T06:05:45.077Z,-0.15
2019-02-01T06:06:25.645Z,-0.15
2019-02-01T06:07:06.203Z,-0.17
2019-02-01T06:07:46.774Z,-0.17
2019-02-01T06:08:27.323Z,-0.17
2019-02-01T06:09:07.882Z,-0.17
2019-02-01T06:09:48.424Z,-0.03
2019-02-01T06:10:28.997Z,-0.14
2019-02-01T06:11:09.613Z,-0.08
2019-02-01T06:11:50.161Z,-0.1
2019-02-01T06:12:30.738Z,-0.03
2019-02-01T06:13:11.309Z,-0.06
2019-02-01T06:13:51.869Z,-0.06
2019-02-01T06:14:32.814Z,-0.02
2019-02-01T06:15:12.971Z,0.07
2019-02-01T06:15:53.522Z,0.07
2019-02-01T06:16:34.098Z,-0.02
2019-02-01T06:17:14.665Z,0.05
2019-02-01T06:17:55.216Z,0.07
2019-02-01T06:18:35.795Z,0.03
2019-02-01T06:19:16.370Z,0.04
2019-02-01T06:19:56.968Z,0.03
2019-02-01T06:20:40.088Z,0.05
2019-02-01T06:21:18.075Z,0.04
2019-02-01T06:21:58.638Z,0.05
2019-02-01T06:22:39.199Z,0.07
2019-02-01T06:23:19.762Z,0.04
2019-02-01T06:24:00.444Z,0.04
2019-02-01T06:24:40.988Z,0.03
2019-02-01T06:25:21.566Z,-0.02
2019-02-01T06:26:02.092Z,0.1
2019-02-01T06:26:42.645Z,0.08
2019-02-01T06:27:23.202Z,0.1
2019-02-01T06:28:03.774Z,0.1
2019-02-01T06:28:44.330Z,0.08
2019-02-01T06:29:24.875Z,0.1
2019-02-01T06:30:05.434Z,0.01
2019-02-01T06:30:46.059Z,0.08
2019-02-01T06:31:26.625Z,0.01
2019-02-01T06:32:07.206Z,0.05
2019-02-01T06:32:47.791Z,0.01
2019-02-01T06:33:28.331Z,0.16
2019-02-01T06:34:08.882Z,0.37
2019-02-01T06:34:49.456Z,0.65
2019-02-01T06:35:30.009Z,0.94
2019-02-01T06:36:10.557Z,1.23
2019-02-01T06:36:51.129Z,1.5
2019-02-01T06:37:31.701Z,1.78
2019-02-01T06:38:12.263Z,2
2019-02-01T06:38:52.923Z,2.15
2019-02-01T06:39:33.469Z,2.44
2019-02-01T06:40:14.030Z,2.67
2019-02-01T06:40:54.577Z,2.83
2019-02-01T06:41:35.186Z,3.04
2019-02-01T06:42:15.735Z,3.08
2019-02-01T06:42:56.288Z,3.16
2019-02-01T06:43:36.846Z,3.18
2019-02-01T06:44:17.416Z,3.21
2019-02-01T06:44:57.986Z,3.19
2019-02-01T06:45:38.555Z,3.23
2019-02-01T06:46:19.484Z,3.36
2019-02-01T06:47:00.410Z,3.41
2019-02-01T06:47:41.370Z,3.56
2019-02-01T06:48:22.322Z,3.65
2019-02-01T06:49:03.185Z,3.7
2019-02-01T06:49:44.111Z,3.8
2019-02-01T06:50:24.918Z,3.94
2019-02-01T06:51:05.671Z,4.05
2019-02-01T06:51:46.425Z,4.06
2019-02-01T06:52:27.175Z,4.17
2019-02-01T06:53:07.958Z,4.26
2019-02-01T06:53:48.766Z,4.23
2019-02-01T06:54:29.539Z,4.37
2019-02-01T06:55:10.360Z,4.28
2019-02-01T06:55:51.161Z,4.32
2019-02-01T06:56:31.846Z,4.35
2019-02-01T06:57:12.535Z,4.38
2019-02-01T06:57:53.706Z,4.23
2019-02-01T06:58:34.382Z,4.26
2019-02-01T07:01:28.058Z,4.4
2019-02-01T07:02:08.791Z,4.41
2019-02-01T07:02:49.518Z,4.45
2019-02-01T07:03:30.341Z,4.38
2019-02-01T07:04:11.083Z,4.32
2019-02-01T07:04:51.777Z,4.22
2019-02-01T07:05:32.487Z,4.23
2019-02-01T07:06:13.194Z,4.05
2019-02-01T07:06:53.928Z,4.1
2019-02-01T07:07:34.583Z,3.94
2019-02-01T07:08:15.490Z,3.88
2019-02-01T07:08:56.424Z,3.84
2019-02-01T07:09:37.680Z,3.94
2019-02-01T07:10:18.387Z,3.77
2019-02-01T07:10:58.944Z,3.8
2019-02-01T07:11:39.494Z,3.83
2019-02-01T07:12:20.080Z,3.87
2019-02-01T07:13:00.679Z,4.04
2019-02-01T07:13:41.250Z,4.04
2019-02-01T07:14:21.945Z,4.06
2019-02-01T07:15:02.509Z,4.23
2019-02-01T07:15:43.121Z,4.23
2019-02-01T07:16:23.691Z,4.16
2019-02-01T07:17:04.293Z,4.12
2019-02-01T07:17:44.862Z,4.1
2019-02-01T07:18:25.426Z,4.12
2019-02-01T07:19:06.029Z,4.1
2019-02-01T07:19:46.600Z,3.91
2019-02-01T07:20:27.153Z,3.84
2019-02-01T07:21:08.088Z,3.66
2019-02-01T07:21:48.280Z,3.48
2019-02-01T07:22:28.843Z,3.25
2019-02-01T07:23:09.419Z,3.08
2019-02-01T07:23:50.036Z,2.85
2019-02-01T07:24:30.624Z,2.85
2019-02-01T07:25:11.958Z,2.64
2019-02-01T07:25:52.509Z,2.51
2019-02-01T07:26:33.426Z,2.43
2019-02-01T07:27:14.165Z,2.29
2019-02-01T07:27:54.714Z,2.15
2019-02-01T07:28:35.288Z,2.08
2019-02-01T07:29:15.874Z,2.17
2019-02-01T07:29:56.470Z,1.95
2019-02-01T07:30:37.915Z,2.02
2019-02-01T07:31:18.650Z,2.02
2019-02-01T07:31:59.272Z,1.87
2019-02-01T07:32:39.911Z,1.89
2019-02-01T07:33:31.761Z,1.78
2019-02-01T07:34:01.968Z,1.77
2019-02-01T07:34:42.613Z,1.73
2019-02-01T07:35:23.145Z,1.67
2019-02-01T07:36:03.740Z,1.56
2019-02-01T07:36:44.355Z,1.49
2019-02-01T07:37:25.001Z,1.5
2019-02-01T07:38:05.492Z,1.45
2019-02-01T07:38:46.106Z,1.38
2019-02-01T07:39:26.746Z,1.42
2019-02-01T07:40:07.315Z,1.38
2019-02-01T07:40:48.081Z,1.3
2019-02-01T07:41:29.184Z,1.26
2019-02-01T07:42:09.889Z,1.22
2019-02-01T07:42:50.480Z,1.28
2019-02-01T07:43:31.056Z,1.24
2019-02-01T07:44:11.604Z,1.13
2019-02-01T07:44:52.160Z,1.13
2019-02-01T07:45:33.415Z,1.13
2019-02-01T07:46:13.974Z,1.22
2019-02-01T07:46:54.529Z,1.02
2019-02-01T07:47:35.110Z,1.02
2019-02-01T07:48:15.910Z,0.99
2019-02-01T07:48:57.009Z,0.96
2019-02-01T07:49:37.604Z,0.96
2019-02-01T07:50:23.730Z,0.94
2019-02-01T07:50:58.960Z,0.94
2019-02-01T07:51:39.519Z,0.99
2019-02-01T07:52:20.420Z,0.99
2019-02-01T07:53:01.016Z,0.98
2019-02-01T07:53:41.609Z,0.92
2019-02-01T07:54:22.187Z,0.92
2019-02-01T07:55:02.724Z,0.91
2019-02-01T07:55:43.295Z,0.87
2019-02-01T07:56:23.938Z,0.91
2019-02-01T07:57:04.497Z,0.98
2019-02-01T07:57:45.128Z,0.92
2019-02-01T07:58:25.685Z,0.96
2019-02-01T07:59:06.310Z,0.92
2019-02-01T07:59:46.893Z,0.98
2019-02-01T08:00:27.453Z,0.91
2019-02-01T08:01:08.017Z,0.98
2019-02-01T08:01:48.658Z,0.98
2019-02-01T08:02:29.205Z,0.99
2019-02-01T08:03:09.747Z,0.99
2019-02-01T08:03:50.296Z,0.99
2019-02-01T08:04:32.448Z,0.94
2019-02-01T08:05:13.004Z,0.98
2019-02-01T08:05:53.582Z,0.96
2019-02-01T08:06:34.148Z,0.88
2019-02-01T08:07:14.744Z,0.91
2019-02-01T08:07:55.315Z,0.95
2019-02-01T08:08:35.870Z,0.94
2019-02-01T08:09:16.456Z,0.87
2019-02-01T08:09:57.018Z,0.94
2019-02-01T08:10:37.678Z,0.95
2019-02-01T08:11:18.231Z,0.88
2019-02-01T08:11:58.947Z,0.91
2019-02-01T08:12:39.593Z,0.88
2019-02-01T08:13:20.302Z,0.84
2019-02-01T08:14:00.845Z,0.84
2019-02-01T08:14:41.652Z,0.76
2019-02-01T08:15:22.220Z,0.78
2019-02-01T08:16:02.764Z,0.84
2019-02-01T08:16:43.321Z,0.84
2019-02-01T08:17:23.923Z,0.78
2019-02-01T08:18:04.497Z,0.87
2019-02-01T08:18:45.071Z,0.84
2019-02-01T08:19:25.612Z,0.91
2019-02-01T08:20:06.178Z,0.94
2019-02-01T08:20:46.762Z,0.94
2019-02-01T08:21:27.566Z,0.91
2019-02-01T08:22:07.872Z,0.87
2019-02-01T08:22:48.455Z,0.91
2019-02-01T08:23:28.988Z,0.88
2019-02-01T08:24:09.541Z,0.88
2019-02-01T08:24:50.094Z,0.91
2019-02-01T08:25:30.653Z,0.84
2019-02-01T08:26:11.221Z,0.84
2019-02-01T08:26:51.768Z,0.88
2019-02-01T08:27:32.383Z,0.84
2019-02-01T08:28:12.957Z,0.92
2019-02-01T08:28:53.511Z,0.91
2019-02-01T08:29:34.063Z,0.88
2019-02-01T08:30:14.642Z,1.01
2019-02-01T08:30:55.216Z,0.95
2019-02-01T08:31:35.786Z,0.98
2019-02-01T08:32:16.375Z,1.05
2019-02-01T08:32:57.038Z,0.96
2019-02-01T08:33:37.585Z,1.01
2019-02-01T08:34:18.143Z,0.94
2019-02-01T08:34:58.700Z,1.06
2019-02-01T08:35:39.288Z,1.08
2019-02-01T08:36:19.784Z,1.04
2019-02-01T08:37:00.363Z,1.1
2019-02-01T08:37:40.916Z,1.04
2019-02-01T08:38:21.488Z,1.01
2019-02-01T08:39:02.043Z,0.99
2019-02-01T08:39:42.829Z,1.04
2019-02-01T08:40:23.405Z,0.98
2019-02-01T08:41:04.047Z,1.01
2019-02-01T08:41:44.615Z,1.05
2019-02-01T08:44:43.654Z,1.05
2019-02-01T08:45:24.150Z,1.08
2019-02-01T08:46:04.777Z,1.19
2019-02-01T08:46:45.522Z,1.05
2019-02-01T08:47:26.166Z,1.06
2019-02-01T08:48:06.656Z,1.1
2019-02-01T08:48:47.233Z,0.98
2019-02-01T08:49:27.794Z,0.96
2019-02-01T08:50:08.897Z,0.98
2019-02-01T08:50:49.720Z,0.98
2019-02-01T08:51:38.055Z,1.04
2019-02-01T08:52:10.841Z,1.13
2019-02-01T08:52:51.380Z,1.04
2019-02-01T08:53:31.953Z,1.02
2019-02-01T08:54:12.502Z,1.13
2019-02-01T08:54:53.139Z,1.2
2019-02-01T08:55:33.817Z,1.06
2019-02-01T08:56:14.407Z,1.06
2019-02-01T08:56:54.990Z,1.2
2019-02-01T08:57:35.537Z,1.2
2019-02-01T08:58:16.261Z,1.14
2019-02-01T08:58:56.828Z,1.12
2019-02-01T08:59:37.393Z,1.19
2019-02-01T09:00:28.151Z,1.13
2019-02-01T09:00:58.556Z,1.2
2019-02-01T09:01:39.781Z,1.24
2019-02-01T09:02:20.346Z,1.22
2019-02-01T09:03:01.221Z,1.23
2019-02-01T09:03:42.318Z,1.19
2019-02-01T09:04:23.994Z,1.22
2019-02-01T09:05:04.613Z,1.24